Time;durP1;ratioP1;P1;durP2;ratioP2;P2;SDS_P1;SDS_P2;PMS_P1;PMS_P2;Temp;Humidity;BMP_temperature;BMP_pressure;BME280_temperature;BME280_humidity;BME280_pressure;Samples;Min_cycle;Max_cycle;Signal;HPM_P1;HPM_P2
2022/03/06 00:01:51;;;;;;;22.40;10.68;;;-2.10;99.90;;;;;;4957154;28;94552;-78
2022/03/06 00:04:17;;;;;;;20.52;10.30;;;-1.90;99.90;;;;;;4956684;28;98320;-77
2022/03/06 00:06:42;;;;;;;19.77;10.25;;;-1.80;99.90;;;;;;4956819;28;97783;-77
2022/03/06 00:09:08;;;;;;;19.30;10.23;;;-1.70;99.90;;;;;;4974611;28;94361;-77
2022/03/06 00:11:33;;;;;;;18.42;10.65;;;-1.60;99.90;;;;;;4974593;28;94527;-77
2022/03/06 00:13:59;;;;;;;21.70;10.45;;;-1.50;99.90;;;;;;4974606;28;96329;-78
2022/03/06 00:16:24;;;;;;;20.10;10.77;;;-1.40;99.90;;;;;;4973941;28;94885;-77
2022/03/06 00:18:50;;;;;;;24.88;12.15;;;-1.40;99.90;;;;;;4974974;28;94373;-77
2022/03/06 00:21:15;;;;;;;21.05;11.30;;;-1.30;99.90;;;;;;4974105;28;94509;-77
2022/03/06 00:23:41;;;;;;;19.48;10.70;;;-1.20;99.90;;;;;;4974337;28;96400;-77
2022/03/06 00:26:07;;;;;;;22.17;11.25;;;-1.10;99.90;;;;;;4974313;28;94736;-78
2022/03/06 00:28:33;;;;;;;24.33;12.38;;;-1.00;99.90;;;;;;4955444;28;94992;-77
2022/03/06 05:00:16;;;;;;;22.05;10.20;;;-1.40;99.90;;;;;;6042115;22;96424;-76
2022/03/06 05:02:42;;;;;;;21.50;9.88;;;-1.60;99.90;;;;;;4936430;28;98157;-76
2022/03/06 05:05:09;;;;;;;21.92;9.80;;;-1.70;99.90;;;;;;4957108;28;94746;-76
2022/03/06 05:07:35;;;;;;;18.33;9.82;;;-1.90;99.90;;;;;;4955857;28;94487;-76
2022/03/06 05:10:00;;;;;;;21.58;10.65;;;-2.10;99.90;;;;;;4955663;28;94597;-77
2022/03/06 05:12:26;;;;;;;20.10;10.05;;;-2.30;99.90;;;;;;4954587;28;95441;-77
2022/03/06 05:14:51;;;;;;;20.15;9.88;;;-2.50;99.90;;;;;;4960852;22;97877;-77
2022/03/06 05:17:18;;;;;;;22.30;11.07;;;-2.60;99.90;;;;;;4958374;28;94489;-77
2022/03/06 05:19:43;;;;;;;19.58;10.00;;;-2.80;99.90;;;;;;4940073;28;94546;-77
2022/03/06 05:22:09;;;;;;;20.35;10.13;;;-2.80;99.90;;;;;;4956879;28;96209;-78
2022/03/06 05:24:34;;;;;;;20.25;10.60;;;-3.00;99.90;;;;;;4957375;28;94885;-77
2022/03/06 05:27:00;;;;;;;22.13;11.48;;;-3.00;99.90;;;;;;4957937;28;94469;-77
2022/03/06 05:29:25;;;;;;;17.85;9.90;;;-3.10;99.90;;;;;;4939712;28;94546;-79
2022/03/06 05:31:51;;;;;;;20.48;10.85;;;-3.20;99.90;;;;;;4958247;28;94512;-77
2022/03/06 05:34:16;;;;;;;18.63;9.32;;;-3.10;99.90;;;;;;4957461;28;95712;-77
2022/03/06 05:36:42;;;;;;;19.33;10.30;;;-3.20;99.90;;;;;;4940378;28;94490;-78
2022/03/06 05:39:07;;;;;;;22.23;10.60;;;-3.30;99.90;;;;;;4957688;28;93794;-77
2022/03/06 05:41:33;;;;;;;21.85;11.02;;;-3.30;99.90;;;;;;4957153;28;95796;-77
2022/03/06 05:43:59;;;;;;;20.17;10.60;;;-3.40;99.90;;;;;;4957394;28;94356;-77
2022/03/06 05:46:24;;;;;;;21.40;10.32;;;-3.40;99.90;;;;;;4939496;28;95517;-76
2022/03/06 05:48:50;;;;;;;20.20;9.45;;;-3.40;99.90;;;;;;4939726;28;94539;-77
2022/03/06 05:51:15;;;;;;;22.13;10.48;;;-3.50;99.90;;;;;;4939644;28;96898;-77
2022/03/06 05:53:41;;;;;;;18.15;9.65;;;-3.50;99.90;;;;;;4956594;28;95957;-77
2022/03/06 05:56:07;;;;;;;19.60;10.07;;;-3.60;99.90;;;;;;4940447;28;94457;-77
2022/03/06 05:58:32;;;;;;;18.85;10.13;;;-3.50;99.90;;;;;;4957475;28;94589;-77
2022/03/06 06:00:58;;;;;;;20.42;10.27;;;-3.50;99.90;;;;;;4956877;28;95654;-77
2022/03/06 06:03:25;;;;;;;23.17;10.63;;;-3.50;99.90;;;;;;4957265;28;95033;-77
2022/03/06 06:05:51;;;;;;;19.23;9.70;;;-3.50;99.90;;;;;;4939117;28;94619;-77
2022/03/06 06:08:17;;;;;;;18.75;10.02;;;-3.60;99.90;;;;;;4957629;28;94649;-77
2022/03/06 06:10:43;;;;;;;22.33;10.70;;;-3.60;99.90;;;;;;4938334;28;98740;-77
2022/03/06 06:13:09;;;;;;;21.90;10.20;;;-3.60;99.90;;;;;;4957034;28;96000;-77
2022/03/06 06:15:37;;;;;;;21.42;9.88;;;-3.60;99.90;;;;;;4956208;28;96309;-77
2022/03/06 06:18:02;;;;;;;20.20;10.20;;;-3.60;99.90;;;;;;4957752;28;94653;-77
2022/03/06 06:20:28;;;;;;;21.52;11.25;;;-3.50;99.90;;;;;;4938177;28;98166;-77
2022/03/06 06:22:53;;;;;;;29.75;14.13;;;-3.50;99.90;;;;;;4938626;28;98016;-77
2022/03/06 06:25:19;;;;;;;31.48;14.25;;;-3.40;99.90;;;;;;4939018;28;94574;-78
2022/03/06 06:27:45;;;;;;;28.77;13.80;;;-3.20;99.90;;;;;;4939442;28;93796;-77
2022/03/06 06:30:10;;;;;;;31.20;15.05;;;-3.20;99.90;;;;;;4956357;28;95778;-77
2022/03/06 06:32:36;;;;;;;28.88;13.70;;;-3.20;99.90;;;;;;4956577;28;94450;-77
2022/03/06 06:35:02;;;;;;;27.65;13.27;;;-3.10;99.90;;;;;;4938282;28;95510;-78
2022/03/06 06:37:27;;;;;;;23.08;12.50;;;-3.10;99.90;;;;;;4956440;28;94660;-77
2022/03/06 06:39:53;;;;;;;27.38;12.73;;;-3.10;99.90;;;;;;4956350;28;95112;-77
2022/03/06 06:42:18;;;;;;;31.08;13.77;;;-3.10;99.90;;;;;;4956298;28;95309;-77
2022/03/06 06:44:44;;;;;;;22.90;11.80;;;-3.10;99.90;;;;;;4956543;28;94376;-77
2022/03/06 06:47:09;;;;;;;24.98;12.10;;;-3.10;99.90;;;;;;4956699;28;94439;-77
2022/03/06 06:49:35;;;;;;;30.58;14.10;;;-3.10;99.90;;;;;;4938151;28;97161;-77
2022/03/06 06:52:01;;;;;;;26.38;12.77;;;-3.00;99.90;;;;;;4956493;28;94017;-77
2022/03/06 06:54:26;;;;;;;27.10;13.10;;;-3.00;99.90;;;;;;4938788;28;94569;-77
2022/03/06 06:56:53;;;;;;;32.92;14.80;;;-2.90;99.90;;;;;;4938683;28;94626;-77
2022/03/06 06:59:18;;;;;;;40.22;18.05;;;-2.90;99.90;;;;;;4955456;28;95452;-77
2022/03/06 07:01:44;;;;;;;37.92;16.90;;;-2.90;99.90;;;;;;4938218;28;98439;-77
2022/03/06 07:04:09;;;;;;;29.08;15.40;;;-2.80;99.90;;;;;;4938395;28;94484;-77
2022/03/06 07:06:35;;;;;;;35.80;16.33;;;-2.80;99.90;;;;;;4938192;28;95162;-77
2022/03/06 07:09:00;;;;;;;27.38;13.20;;;-2.70;99.90;;;;;;4955934;28;94523;-77
2022/03/06 07:11:26;;;;;;;27.83;12.80;;;-2.60;99.90;;;;;;4937856;28;97748;-77
2022/03/06 07:13:52;;;;;;;25.08;12.20;;;-2.60;99.90;;;;;;4938036;28;94614;-77
2022/03/06 07:16:17;;;;;;;25.10;12.90;;;-2.50;99.90;;;;;;4956114;28;93853;-77
2022/03/06 07:18:43;;;;;;;26.50;12.23;;;-2.40;99.90;;;;;;4938124;28;97872;-77
2022/03/06 07:21:10;;;;;;;25.25;12.35;;;-2.40;99.90;;;;;;4955029;28;95915;-77
2022/03/06 07:23:35;;;;;;;25.30;13.23;;;-2.30;99.90;;;;;;4955405;28;95367;-78
2022/03/06 07:26:01;;;;;;;27.70;13.13;;;-2.20;99.90;;;;;;4956052;28;94615;-78
2022/03/06 07:28:28;;;;;;;24.25;12.25;;;-2.20;99.90;;;;;;4955955;28;95591;-77
2022/03/06 07:30:54;;;;;;;24.83;11.40;;;-2.10;99.90;;;;;;4955403;28;95311;-78
2022/03/06 07:33:19;;;;;;;22.40;12.05;;;-2.00;99.90;;;;;;4956028;28;94484;-77
2022/03/06 07:35:45;;;;;;;21.98;11.88;;;-1.90;99.90;;;;;;4937433;28;94559;-77
2022/03/06 07:38:10;;;;;;;23.52;12.57;;;-1.90;99.90;;;;;;4954859;28;94624;-77
2022/03/06 07:40:36;;;;;;;23.85;12.20;;;-1.90;99.90;;;;;;4955687;28;94976;-77
2022/03/06 07:43:02;;;;;;;25.60;12.68;;;-1.80;99.90;;;;;;4955742;28;94426;-77
2022/03/06 07:45:27;;;;;;;22.15;11.63;;;-1.80;99.90;;;;;;4955675;28;94418;-78
2022/03/06 07:47:54;;;;;;;24.92;13.30;;;-1.80;99.90;;;;;;4954863;28;96360;-77
2022/03/06 07:50:19;;;;;;;23.23;12.75;;;-1.70;99.90;;;;;;4955525;28;95198;-77
2022/03/06 07:52:45;;;;;;;25.10;12.85;;;-1.60;99.90;;;;;;4955869;28;94343;-77
2022/03/06 07:55:11;;;;;;;24.45;12.65;;;-1.40;99.90;;;;;;4955484;28;94541;-77
2022/03/06 07:57:37;;;;;;;21.88;12.93;;;-1.20;99.90;;;;;;4955198;28;94430;-77
2022/03/06 08:00:06;;;;;;;25.02;13.05;;;-1.00;99.90;;;;;;4955200;28;95208;-77
2022/03/06 08:02:31;;;;;;;22.55;12.30;;;-0.80;99.90;;;;;;4955524;28;94554;-77
2022/03/06 08:04:57;;;;;;;25.42;13.65;;;-0.60;99.90;;;;;;4955591;28;93766;-77
2022/03/06 08:07:22;;;;;;;27.08;13.63;;;-0.50;99.90;;;;;;4954907;28;96437;-77
2022/03/06 08:09:48;;;;;;;24.60;13.13;;;-0.30;99.90;;;;;;4937370;28;97943;-78
2022/03/06 08:12:13;;;;;;;23.67;12.52;;;-0.20;99.90;;;;;;4954917;28;95463;-76
2022/03/06 08:14:39;;;;;;;26.55;13.73;;;0.00;99.90;;;;;;4936904;28;94637;-77
2022/03/06 08:17:05;;;;;;;23.65;12.15;;;0.20;99.90;;;;;;4955272;28;95739;-77
2022/03/06 08:19:30;;;;;;;22.52;12.95;;;0.40;99.90;;;;;;4954581;28;94853;-78
2022/03/06 08:21:56;;;;;;;24.70;12.68;;;0.50;99.90;;;;;;4937510;28;94503;-78
2022/03/06 08:24:21;;;;;;;22.50;12.60;;;0.80;99.90;;;;;;4937028;28;94530;-78
2022/03/06 08:26:47;;;;;;;19.88;12.25;;;0.90;99.90;;;;;;4955222;28;94580;-77
2022/03/06 08:29:12;;;;;;;22.42;11.75;;;1.10;99.90;;;;;;4954975;28;94748;-77
2022/03/06 08:31:38;;;;;;;26.70;13.38;;;1.30;99.90;;;;;;4955387;28;94773;-78
2022/03/06 08:34:04;;;;;;;19.38;11.77;;;1.40;99.90;;;;;;4954452;28;94628;-78
2022/03/06 08:36:31;;;;;;;18.85;11.55;;;1.70;99.90;;;;;;4953948;28;97728;-77
2022/03/06 08:38:57;;;;;;;20.02;10.88;;;1.80;99.90;;;;;;4937475;28;98617;-77
2022/03/06 08:41:22;;;;;;;17.77;11.18;;;2.10;99.90;;;;;;4954727;28;94527;-77
2022/03/06 08:43:48;;;;;;;22.45;11.48;;;2.30;99.90;;;;;;4954910;28;94463;-77
2022/03/06 08:46:13;;;;;;;19.80;11.30;;;2.40;99.90;;;;;;4955372;28;94687;-78
2022/03/06 08:48:39;;;;;;;19.30;10.38;;;2.60;99.90;;;;;;4936963;28;97844;-78
2022/03/06 08:51:05;;;;;;;22.00;11.10;;;2.80;99.90;;;;;;4958040;28;94427;-77
2022/03/06 08:53:32;;;;;;;19.15;11.40;;;2.90;99.90;;;;;;4958399;28;93555;-77
2022/03/06 08:55:59;;;;;;;16.58;10.23;;;3.00;99.90;;;;;;4957796;28;94741;-78
2022/03/06 08:58:25;;;;;;;19.08;11.23;;;3.10;99.90;;;;;;4958884;28;94494;-78
2022/03/06 09:00:50;;;;;;;18.15;10.75;;;3.10;99.90;;;;;;4958101;28;95415;-80
2022/03/06 09:03:16;;;;;;;17.42;10.48;;;3.20;99.90;;;;;;4939470;28;94505;-78
2022/03/06 09:05:41;;;;;;;18.17;10.45;;;3.30;99.90;;;;;;4948642;28;94566;-77
2022/03/06 09:08:11;;;;;;;17.50;10.90;;;3.30;99.90;;;;;;4955334;28;94486;-77
2022/03/06 09:10:38;;;;;;;17.45;9.98;;;3.40;99.90;;;;;;4974759;28;94419;-78
2022/03/06 09:13:04;;;;;;;17.45;10.57;;;3.50;99.90;;;;;;4978217;28;94715;-78
2022/03/06 09:15:30;;;;;;;15.55;9.70;;;3.60;99.90;;;;;;4976931;28;96829;-77
2022/03/06 09:17:56;;;;;;;19.50;11.02;;;3.70;99.90;;;;;;4978354;28;93676;-77
2022/03/06 09:20:22;;;;;;;17.33;10.35;;;3.90;99.90;;;;;;4978208;28;94475;-81
2022/03/06 09:22:48;;;;;;;19.42;10.85;;;4.10;99.70;;;;;;4969176;28;94620;-78
2022/03/06 09:25:14;;;;;;;19.40;10.68;;;4.20;99.30;;;;;;4952096;28;99062;-80
2022/03/06 09:27:40;;;;;;;16.02;10.15;;;4.40;98.70;;;;;;4962453;28;96324;-80
2022/03/06 09:30:06;;;;;;;17.83;10.00;;;4.60;97.30;;;;;;4952035;28;94433;-80
2022/03/06 09:32:32;;;;;;;15.45;9.75;;;4.60;96.70;;;;;;4951682;28;94480;-79
2022/03/06 09:34:58;;;;;;;14.63;8.98;;;4.70;96.40;;;;;;4960842;28;98522;-80
2022/03/06 09:37:23;;;;;;;15.30;9.75;;;4.70;96.20;;;;;;4964306;28;94975;-83
2022/03/06 09:39:49;;;;;;;12.82;9.25;;;4.70;94.90;;;;;;4963212;28;94876;-78
2022/03/06 09:42:17;;;;;;;13.75;8.93;;;4.90;95.20;;;;;;4959062;28;94407;-78
2022/03/06 09:44:46;;;;;;;16.33;10.10;;;4.90;93.50;;;;;;4959709;28;95334;-79
2022/03/06 09:47:12;;;;;;;16.27;9.70;;;4.70;94.00;;;;;;4958182;28;95591;-80
2022/03/06 09:49:38;;;;;;;13.93;9.10;;;4.60;94.10;;;;;;4959774;28;95417;-79
2022/03/06 09:52:04;;;;;;;13.57;9.13;;;4.60;93.60;;;;;;4959913;28;94550;-79
2022/03/06 09:54:30;;;;;;;13.43;8.80;;;4.70;93.60;;;;;;4965065;28;94652;-79
2022/03/06 09:56:57;;;;;;;18.08;9.10;;;4.80;92.60;;;;;;4971952;28;94987;-79
2022/03/06 09:59:23;;;;;;;11.98;8.30;;;4.80;92.70;;;;;;4964694;28;94501;-79
2022/03/06 10:01:48;;;;;;;10.93;7.93;;;5.10;92.20;;;;;;4947042;28;94643;-79
2022/03/06 10:04:25;;;;;;;12.45;8.07;;;5.20;91.40;;;;;;4964113;28;95205;-80
2022/03/06 10:06:57;;;;;;;13.95;7.90;;;5.40;90.30;;;;;;4951145;28;95275;-80
2022/03/06 10:09:22;;;;;;;12.00;8.00;;;5.80;86.40;;;;;;4981465;28;94604;-82
2022/03/06 10:11:51;;;;;;;10.95;7.55;;;6.00;85.00;;;;;;4970310;28;94399;-81
2022/03/06 10:14:41;;;;;;;12.32;7.72;;;5.80;83.20;;;;;;4950858;28;98269;-77
2022/03/06 10:17:17;;;;;;;11.98;7.85;;;6.00;81.20;;;;;;4959486;28;95732;-79
2022/03/06 10:20:16;;;;;;;12.35;7.90;;;5.80;83.30;;;;;;4970788;28;94766;-79
2022/03/06 10:22:45;;;;;;;10.95;7.43;;;5.90;81.10;;;;;;4956230;28;94497;-81
2022/03/06 10:25:16;;;;;;;11.05;7.30;;;5.80;79.40;;;;;;4978897;28;96272;-79
2022/03/06 10:28:00;;;;;;;11.40;7.78;;;5.90;78.90;;;;;;4962530;28;97168;-79
2022/03/06 10:30:39;;;;;;;12.18;7.65;;;5.90;78.50;;;;;;4964449;28;94479;-81
2022/03/06 10:33:10;;;;;;;11.88;7.60;;;6.00;78.30;;;;;;4965461;28;93739;-85
2022/03/06 10:35:41;;;;;;;13.23;8.50;;;6.00;77.60;;;;;;4954268;28;98289;-80
2022/03/06 10:38:26;;;;;;;12.32;8.13;;;5.90;76.20;;;;;;4946770;28;96864;-81
2022/03/06 10:40:57;;;;;;;12.23;8.00;;;5.90;77.30;;;;;;4953880;28;95428;-82
2022/03/06 10:43:31;;;;;;;10.93;7.18;;;6.10;76.60;;;;;;4967181;28;94481;-79
2022/03/06 10:46:17;;;;;;;13.23;7.72;;;6.50;76.00;;;;;;4949385;28;98385;-80
2022/03/06 10:49:00;;;;;;;11.05;7.45;;;7.30;75.20;;;;;;4958516;28;96968;-79
2022/03/06 10:51:27;;;;;;;11.77;8.27;;;7.50;73.70;;;;;;4942140;28;94519;-82
2022/03/06 10:53:54;;;;;;;11.98;8.50;;;7.80;73.00;;;;;;4941779;28;94475;-78
2022/03/06 10:56:23;;;;;;;12.82;8.55;;;8.10;70.10;;;;;;4941321;28;97243;-80
2022/03/06 10:58:48;;;;;;;11.80;8.45;;;8.00;70.10;;;;;;4944422;28;96243;-80
2022/03/06 11:01:14;;;;;;;15.52;9.48;;;8.30;72.00;;;;;;4961498;28;94459;-81
2022/03/06 11:03:41;;;;;;;10.88;7.88;;;8.60;69.90;;;;;;4967290;28;94501;-81
2022/03/06 11:06:09;;;;;;;12.18;7.22;;;8.80;67.60;;;;;;4940347;28;98684;-81
2022/03/06 11:08:36;;;;;;;9.52;7.40;;;8.80;67.70;;;;;;4941297;28;97444;-81
2022/03/06 11:11:05;;;;;;;10.70;7.78;;;9.40;68.30;;;;;;4959435;28;94442;-82
2022/03/06 11:13:31;;;;;;;10.30;7.25;;;9.60;65.40;;;;;;4940292;28;94426;-80
2022/03/06 11:15:58;;;;;;;9.75;7.00;;;9.30;65.90;;;;;;4968038;22;97196;-79
2022/03/06 11:18:25;;;;;;;10.48;7.45;;;9.10;65.10;;;;;;4959671;28;95200;-77
2022/03/06 11:20:52;;;;;;;10.90;8.02;;;9.10;65.80;;;;;;4976936;28;94720;-82
2022/03/06 11:23:39;;;;;;;12.23;8.30;;;8.80;65.60;;;;;;4951692;28;93855;-81
2022/03/06 11:26:14;;;;;;;12.00;8.30;;;9.10;66.70;;;;;;4939174;28;98099;-78
2022/03/06 11:28:53;;;;;;;11.88;8.43;;;9.60;65.70;;;;;;4938516;28;96682;-77
2022/03/06 11:31:42;;;;;;;10.32;7.43;;;9.20;65.20;;;;;;4957383;28;95372;-76
2022/03/06 11:34:09;;;;;;;11.90;7.82;;;9.10;65.30;;;;;;4956572;28;94744;-77
2022/03/06 11:36:46;;;;;;;13.95;8.40;;;9.30;65.30;;;;;;4957317;28;95987;-78
2022/03/06 11:39:35;;;;;;;12.63;8.52;;;9.50;63.80;;;;;;4958124;28;94499;-79
2022/03/06 11:42:06;;;;;;;10.48;8.10;;;9.70;63.90;;;;;;4958797;28;94688;-79
2022/03/06 11:44:40;;;;;;;8.63;7.25;;;9.50;64.20;;;;;;4957512;28;94561;-78
2022/03/06 11:47:21;;;;;;;12.65;7.55;;;9.10;64.20;;;;;;4938820;28;97186;-76
2022/03/06 11:49:56;;;;;;;11.95;8.00;;;9.00;64.60;;;;;;4955879;28;94834;-76
2022/03/06 11:52:29;;;;;;;10.95;8.10;;;8.90;64.60;;;;;;4926903;28;94819;-76
2022/03/06 11:54:56;;;;;;;10.18;7.18;;;8.70;64.20;;;;;;4917827;28;94529;-78
2022/03/06 11:57:43;;;;;;;10.25;7.20;;;8.70;66.40;;;;;;4935923;28;96358;-77
2022/03/06 12:00:18;;;;;;;12.10;7.68;;;9.00;65.30;;;;;;4935765;28;94963;-75
2022/03/06 12:02:47;;;;;;;10.15;7.20;;;8.90;63.90;;;;;;4937258;28;94494;-78
2022/03/06 12:05:14;;;;;;;11.82;8.20;;;8.60;64.60;;;;;;4938265;28;94474;-79
2022/03/06 12:07:45;;;;;;;13.63;8.18;;;8.40;65.20;;;;;;4954052;28;95616;-76
2022/03/06 12:10:13;;;;;;;9.60;7.47;;;8.30;65.00;;;;;;4937948;28;94409;-76
2022/03/06 12:12:38;;;;;;;10.57;7.78;;;7.90;66.30;;;;;;4941741;28;94358;-75
2022/03/06 12:15:26;;;;;;;11.55;7.78;;;7.80;67.30;;;;;;4945403;28;93657;-76
2022/03/06 12:17:51;;;;;;;11.68;7.78;;;7.90;68.00;;;;;;4952248;28;96780;-77
2022/03/06 12:20:25;;;;;;;10.85;7.60;;;8.10;67.10;;;;;;4957429;28;95250;-80
2022/03/06 12:22:57;;;;;;;11.25;8.25;;;8.10;67.50;;;;;;4910643;28;95812;-79
2022/03/06 12:25:31;;;;;;;12.80;8.75;;;8.10;68.40;;;;;;4932703;28;95086;-79
2022/03/06 12:28:03;;;;;;;11.07;8.30;;;8.40;66.40;;;;;;4951655;28;94694;-78
2022/03/06 12:30:30;;;;;;;10.73;8.07;;;8.50;65.30;;;;;;4952968;28;94596;-80
2022/03/06 12:32:56;;;;;;;11.15;7.90;;;8.40;65.50;;;;;;4935006;28;94390;-76
2022/03/06 12:35:22;;;;;;;11.20;8.30;;;7.80;66.30;;;;;;4951738;28;94403;-81
2022/03/06 12:37:54;;;;;;;12.07;8.30;;;7.60;69.30;;;;;;4952960;28;95630;-79
2022/03/06 12:40:25;;;;;;;11.15;8.38;;;7.50;68.40;;;;;;4947489;28;94207;-80
2022/03/06 12:43:01;;;;;;;12.27;8.43;;;7.50;69.00;;;;;;4953459;28;94551;-80
2022/03/06 12:45:27;;;;;;;10.63;7.72;;;7.60;68.20;;;;;;4950210;28;94516;-78
2022/03/06 12:47:53;;;;;;;10.75;7.78;;;7.80;68.80;;;;;;4951756;28;98470;-80
2022/03/06 12:50:20;;;;;;;10.85;7.80;;;8.00;69.00;;;;;;4939448;28;96002;-80
2022/03/06 12:52:48;;;;;;;11.02;8.35;;;7.90;68.50;;;;;;4909190;28;94584;-78
2022/03/06 12:55:16;;;;;;;10.38;8.05;;;7.90;69.40;;;;;;4933625;28;94488;-77
2022/03/06 12:57:47;;;;;;;13.02;8.23;;;8.00;68.20;;;;;;4929538;28;98471;-77
2022/03/06 13:00:23;;;;;;;10.48;8.00;;;7.90;66.90;;;;;;4939679;28;94787;-77
2022/03/06 13:02:51;;;;;;;10.38;8.00;;;8.00;66.60;;;;;;4904743;28;94364;-77
2022/03/06 13:05:17;;;;;;;11.98;7.93;;;8.40;66.40;;;;;;4920379;28;93816;-78
2022/03/06 13:07:43;;;;;;;10.98;8.25;;;8.30;65.60;;;;;;4947572;28;95608;-79
2022/03/06 13:10:14;;;;;;;11.63;7.75;;;8.10;65.80;;;;;;4943763;28;96269;-83
2022/03/06 13:12:42;;;;;;;11.20;7.93;;;8.00;66.10;;;;;;4938462;28;95382;-79
2022/03/06 13:15:14;;;;;;;11.75;8.60;;;8.10;66.70;;;;;;4943525;28;95035;-78
2022/03/06 13:17:40;;;;;;;11.00;8.07;;;8.40;65.50;;;;;;4955443;28;94733;-77
2022/03/06 13:20:07;;;;;;;10.15;7.78;;;8.70;66.10;;;;;;4949958;28;95226;-77
2022/03/06 13:22:33;;;;;;;13.55;9.00;;;9.10;65.30;;;;;;4935435;28;94495;-78
2022/03/06 13:25:00;;;;;;;11.68;7.95;;;9.00;64.70;;;;;;4926061;28;94598;-78
2022/03/06 13:27:38;;;;;;;12.65;8.93;;;8.80;65.30;;;;;;4926877;28;98187;-78
2022/03/06 13:30:17;;;;;;;11.25;8.63;;;8.80;64.60;;;;;;4933021;28;99041;-78
2022/03/06 13:33:02;;;;;;;12.55;8.63;;;8.50;65.30;;;;;;4936776;28;94654;-79
2022/03/06 13:35:28;;;;;;;12.65;8.38;;;8.30;66.40;;;;;;4940808;28;94611;-77
2022/03/06 13:37:57;;;;;;;16.63;10.60;;;8.10;64.90;;;;;;4958386;28;97039;-78
2022/03/06 13:40:43;;;;;;;12.32;8.50;;;7.80;65.30;;;;;;4936672;28;97737;-78
2022/03/06 13:43:10;;;;;;;12.20;9.15;;;7.80;65.80;;;;;;4914494;28;94484;-78
2022/03/06 13:45:36;;;;;;;15.98;11.45;;;7.80;65.30;;;;;;4940504;28;94452;-78
2022/03/06 13:48:05;;;;;;;13.45;9.60;;;8.10;66.40;;;;;;4957079;28;94479;-79
2022/03/06 13:50:44;;;;;;;11.25;8.45;;;8.00;66.20;;;;;;4960240;28;94806;-79
2022/03/06 13:53:11;;;;;;;12.80;8.13;;;8.10;66.30;;;;;;4959429;28;94824;-82
2022/03/06 13:55:55;;;;;;;15.60;10.15;;;7.90;65.50;;;;;;4943757;28;93795;-79
2022/03/06 13:58:21;;;;;;;11.00;8.30;;;8.00;65.50;;;;;;4961217;28;94430;-81
2022/03/06 14:00:58;;;;;;;12.20;8.90;;;8.00;65.80;;;;;;4960582;28;95795;-78
2022/03/06 14:03:27;;;;;;;12.48;8.55;;;8.10;66.20;;;;;;4944956;28;95399;-79
2022/03/06 14:05:54;;;;;;;12.82;8.75;;;8.10;65.10;;;;;;4961491;28;94559;-79
2022/03/06 14:08:28;;;;;;;12.52;9.15;;;7.90;65.40;;;;;;4941060;28;96247;-77
2022/03/06 14:10:57;;;;;;;13.15;8.70;;;7.80;69.10;;;;;;4940107;28;98085;-78
2022/03/06 14:13:42;;;;;;;11.48;8.40;;;7.50;67.30;;;;;;4958087;28;94471;-77
2022/03/06 14:16:10;;;;;;;11.13;8.38;;;7.30;69.20;;;;;;4957719;28;94590;-77
2022/03/06 14:18:41;;;;;;;13.50;8.93;;;7.20;69.50;;;;;;4957967;28;95181;-76
2022/03/06 14:21:18;;;;;;;12.15;8.68;;;6.90;69.70;;;;;;4940796;28;96783;-78
2022/03/06 14:24:05;;;;;;;15.65;9.00;;;6.80;70.30;;;;;;4942336;28;94798;-80
2022/03/06 14:26:40;;;;;;;11.82;8.60;;;6.40;71.30;;;;;;4961416;28;94530;-79
2022/03/06 14:29:14;;;;;;;13.23;8.55;;;6.30;72.40;;;;;;4950515;28;99308;-80
2022/03/06 14:31:46;;;;;;;14.80;9.35;;;6.10;72.70;;;;;;4963541;28;95954;-80
2022/03/06 14:34:14;;;;;;;12.65;9.38;;;6.10;73.30;;;;;;4961758;28;94708;-80
2022/03/06 14:36:40;;;;;;;12.55;8.80;;;6.00;73.80;;;;;;4962791;28;94570;-81
2022/03/06 14:39:07;;;;;;;16.30;10.45;;;6.00;74.50;;;;;;4961864;28;94814;-81
2022/03/06 14:41:33;;;;;;;13.40;9.32;;;6.10;74.20;;;;;;4961080;28;95034;-81
2022/03/06 14:43:59;;;;;;;12.10;8.82;;;6.10;73.80;;;;;;4945521;28;94481;-81
2022/03/06 14:46:24;;;;;;;12.23;9.27;;;6.10;74.60;;;;;;4944668;28;93820;-81
2022/03/06 14:48:52;;;;;;;15.00;9.65;;;6.10;75.00;;;;;;4962306;28;94539;-81
2022/03/06 14:51:19;;;;;;;14.68;10.35;;;6.10;74.10;;;;;;4946600;28;97182;-80
2022/03/06 14:53:45;;;;;;;12.75;9.18;;;6.00;74.20;;;;;;4946546;28;95523;-81
2022/03/06 14:56:12;;;;;;;16.52;9.32;;;5.90;73.40;;;;;;4965796;28;94533;-81
2022/03/06 14:58:39;;;;;;;14.77;9.18;;;5.60;74.10;;;;;;4964810;28;95086;-81
2022/03/06 15:01:05;;;;;;;14.18;9.48;;;5.60;75.30;;;;;;4951042;28;96828;-82
2022/03/06 15:03:31;;;;;;;12.27;8.73;;;5.70;75.70;;;;;;4971932;28;94412;-82
2022/03/06 15:05:58;;;;;;;12.68;8.43;;;5.80;73.70;;;;;;4965262;28;94388;-82
2022/03/06 15:08:23;;;;;;;30.40;21.52;;;5.80;73.30;;;;;;4964447;28;94499;-80
2022/03/06 15:10:52;;;;;;;14.15;10.88;;;5.90;73.90;;;;;;4945281;28;96517;-81
2022/03/06 15:13:18;;;;;;;15.48;13.88;;;5.80;73.10;;;;;;4965988;28;94374;-80
2022/03/06 15:15:45;;;;;;;13.60;9.35;;;6.00;72.70;;;;;;4944247;28;94742;-81
2022/03/06 15:18:12;;;;;;;13.25;9.27;;;6.00;71.70;;;;;;4943620;28;98939;-81
2022/03/06 15:20:40;;;;;;;14.57;11.20;;;6.20;70.30;;;;;;4962524;28;95061;-81
2022/03/06 15:23:06;;;;;;;14.40;8.55;;;6.10;71.50;;;;;;4960252;28;94450;-81
2022/03/06 15:25:31;;;;;;;14.68;9.25;;;6.10;72.90;;;;;;4961219;28;94432;-79
2022/03/06 15:27:57;;;;;;;13.27;9.38;;;6.10;71.10;;;;;;4943450;28;97911;-81
2022/03/06 15:30:23;;;;;;;11.25;8.60;;;6.00;70.60;;;;;;4945967;28;96708;-81
2022/03/06 15:32:51;;;;;;;13.00;8.82;;;5.90;71.70;;;;;;4968410;28;94423;-80
2022/03/06 15:35:17;;;;;;;10.80;8.30;;;5.90;72.80;;;;;;4945161;28;93807;-79
2022/03/06 15:37:43;;;;;;;11.25;8.50;;;5.60;73.00;;;;;;4945149;28;98108;-80
2022/03/06 15:40:11;;;;;;;12.63;9.88;;;5.50;73.30;;;;;;4962427;28;95662;-81
2022/03/06 15:42:37;;;;;;;13.13;9.10;;;5.40;73.00;;;;;;4941813;28;95427;-80
2022/03/06 15:45:03;;;;;;;12.27;8.98;;;5.20;74.80;;;;;;4959564;28;94595;-79
2022/03/06 15:47:29;;;;;;;14.10;8.93;;;5.20;75.00;;;;;;4958905;28;95965;-82
2022/03/06 15:49:55;;;;;;;13.05;8.82;;;5.10;73.90;;;;;;4941752;28;96701;-83
2022/03/06 15:52:22;;;;;;;13.32;9.32;;;5.00;74.40;;;;;;4941047;28;94432;-80
2022/03/06 15:54:49;;;;;;;12.50;8.82;;;5.00;74.70;;;;;;4941941;28;94729;-84
2022/03/06 15:57:15;;;;;;;12.98;9.38;;;4.90;75.30;;;;;;4941747;28;97168;-83
2022/03/06 15:59:40;;;;;;;13.05;9.18;;;4.90;75.10;;;;;;4960370;28;95195;-80
2022/03/06 16:02:06;;;;;;;12.07;9.15;;;4.90;76.00;;;;;;4961631;28;94457;-80
2022/03/06 16:04:32;;;;;;;13.05;9.30;;;4.80;76.90;;;;;;4959099;28;94325;-80
2022/03/06 16:06:58;;;;;;;13.52;9.10;;;4.70;77.50;;;;;;4957830;28;96167;-81
2022/03/06 16:09:23;;;;;;;11.45;8.85;;;4.70;77.70;;;;;;4958712;28;95110;-79
2022/03/06 16:11:49;;;;;;;14.32;9.52;;;4.70;78.00;;;;;;4940469;28;94440;-80
2022/03/06 16:14:22;;;;;;;12.57;9.25;;;4.60;78.00;;;;;;4940413;28;94397;-79
2022/03/06 16:16:50;;;;;;;13.00;9.43;;;4.50;77.10;;;;;;4959277;28;95546;-79
2022/03/06 16:19:16;;;;;;;10.85;8.93;;;4.50;77.70;;;;;;4938935;28;97480;-78
2022/03/06 16:21:42;;;;;;;14.40;9.90;;;4.50;77.40;;;;;;4957757;28;94486;-81
2022/03/06 16:24:08;;;;;;;11.20;8.77;;;4.40;76.80;;;;;;4939139;28;93441;-77
2022/03/06 16:26:33;;;;;;;13.38;9.55;;;4.40;77.20;;;;;;4939920;28;96944;-79
2022/03/06 16:28:59;;;;;;;12.10;9.40;;;4.40;78.00;;;;;;4957569;28;94522;-77
2022/03/06 16:31:24;;;;;;;15.02;9.43;;;4.30;77.20;;;;;;4940772;28;95359;-83
2022/03/06 16:33:51;;;;;;;12.60;9.32;;;4.30;77.40;;;;;;4960371;28;94496;-81
2022/03/06 16:36:16;;;;;;;11.98;9.10;;;4.30;78.60;;;;;;4958518;28;95408;-80
2022/03/06 16:38:42;;;;;;;11.90;9.25;;;4.20;78.70;;;;;;4960780;28;95143;-79
2022/03/06 16:41:08;;;;;;;11.48;8.65;;;4.20;78.40;;;;;;4942935;28;94363;-82
2022/03/06 16:43:33;;;;;;;12.63;8.88;;;4.20;78.50;;;;;;4942073;28;94781;-82
2022/03/06 16:46:00;;;;;;;13.15;9.70;;;4.10;79.10;;;;;;4941202;28;96457;-79
2022/03/06 16:48:31;;;;;;;13.13;9.40;;;4.10;78.00;;;;;;4957796;28;94090;-78
2022/03/06 16:50:57;;;;;;;13.50;9.23;;;4.10;78.00;;;;;;4957808;28;94393;-78
2022/03/06 16:53:23;;;;;;;11.85;8.70;;;4.00;78.70;;;;;;4940764;28;94539;-77
2022/03/06 16:55:48;;;;;;;14.02;9.85;;;4.00;78.80;;;;;;4938690;28;98012;-78
2022/03/06 16:58:15;;;;;;;11.40;8.77;;;4.00;78.60;;;;;;4964774;28;95093;-79
2022/03/06 17:00:41;;;;;;;11.77;9.18;;;4.00;76.80;;;;;;4970174;28;94352;-78
2022/03/06 17:03:09;;;;;;;11.73;8.77;;;3.90;77.90;;;;;;4963480;28;94706;-78
2022/03/06 17:05:36;;;;;;;13.13;9.38;;;3.90;77.40;;;;;;4958912;28;95317;-77
2022/03/06 17:08:04;;;;;;;12.57;9.05;;;3.90;77.20;;;;;;4957868;28;94882;-77
2022/03/06 17:10:29;;;;;;;11.80;8.80;;;3.80;77.10;;;;;;4958039;28;94553;-77
2022/03/06 17:12:56;;;;;;;11.10;8.45;;;3.80;77.50;;;;;;4943001;28;93830;-77
2022/03/06 17:15:22;;;;;;;11.73;9.05;;;3.80;78.20;;;;;;4974917;22;95445;-85